Pagrindinis puslapis
METAR-TAF:

METAR-TAF

Oro uostai :

Kunmingas, Kinija

platuma: 25-01N, ilguma: 102-41E, Aukštis: 1892 m

Dabartinis oras

Ataskaita buvo paskelbta 34 minutes, ne 10:00 UTC
Vėjas 10 kt iš Šiaurės
Temperatūra 8°C
Drėgmė 71%
Slėgis 1022 hPa
Matomumas 10 km arba daugiau
Mažai debesys ne aukštis 2300 ft

METAR: ZPPP 281000Z 36005MPS 9999 FEW023 08/03 Q1022 NOSIG

Laikas: 18:34 (10:34 UTC)

Prognozė

Ataskaita buvo paskelbta 7 valandos ir 26 minutes, ne 03:08 UTC
Prognozė galioja nuo 28 metu 06 UTC su 29 metu 06 UTC
Vėjas 10 kt iš Šiaurės Rytų
Matomumas 10 km arba daugiau
Išsisklaidę debesys ne aukštis 2000 ft
Apsiniaukę ne aukštis 3300 ft
Tapsmas
nuo 28 metu 21 UTC su 28 metu 22 UTC
Vėjas 14 kt iš Pietvakarių

TAF: ZPPP 280308Z 2806/2906 04005MPS 9999 SCT020 OVC033 TX14/2906Z TN04/2823Z BECMG 2821/2822 22007MPS

Orai ataskaitas ir orų prognozės (METAR, TAF).

turimą stotys yra geltonos ir raudonos taškus žemėlapyje.

Perkelti pele per norėdami pamatyti stoties vardą.

Tada spustelėkite, norėdami matyti oro stebėjimo ir prognozės.

Norėdami pakeisti žemėlapį: spustelėkite ant žalios mygtukų su juodo kryžiaus žemyn,; žalią mygtuką su brūkšneliu, jei norite nutolinti; arba žalių rodyklių gretimoms žemėlapius.


METAR-TAF: